Sd416 Nippon — SKPF — position and weather

sailwx.info

Track history (hours):
 
Tides and Currents Weather Stations Pressure Air Temp Water Temp Dewpoint Dewpoint Depression Visibility Wind Speed Wind Dir Waves Ship Positions

Sd416 Nippon

Last reported at 2016-May-28 09:33 UTC. Time now 2016-May-28 09:57 UTC.
Position N 58°56' E 011°10'.

Length 17 m; draft 2.5 m.

Type: Fishing. MMSI: 266163000.

Date/timePositionNaut miles runAvg speedWind from/ knotsBaromVisibWave heightAir tempDewpointWater temp
2016-May-28 09:33N 58°56' E 011°10'0 0.0
2016-May-28 08:33N 58°56' E 011°10'0 0.0
2016-May-28 07:33N 58°56' E 011°10'0 0.0
2016-May-28 06:33N 58°56' E 011°10'0 0.0
2016-May-28 05:33N 58°56' E 011°10'0 0.0
2016-May-28 04:33N 58°56' E 011°10'0 0.0
2016-May-28 03:33N 58°56' E 011°10'0 0.0
2016-May-28 02:33N 58°56' E 011°10'0 0.0
2016-May-28 01:33N 58°56' E 011°10'0 0.0
2016-May-28 00:33N 58°56' E 011°10'0 0.0
2016-May-27 23:33N 58°56' E 011°10'0 0.0
2016-May-27 22:33N 58°56' E 011°10'0 0.0
2016-May-27 21:33N 58°56' E 011°10'0 0.0
2016-May-27 20:33N 58°56' E 011°10'0 0.0
2016-May-27 19:33N 58°56' E 011°10'0 0.0
2016-May-27 18:33N 58°56' E 011°10'0 0.0
2016-May-27 17:33N 58°56' E 011°10'0 0.0
2016-May-27 16:33N 58°56' E 011°10'0 0.0
2016-May-27 15:33N 58°56' E 011°10'0 0.0
2016-May-27 14:33N 58°56' E 011°10'0 0.0
2016-May-27 13:33N 58°56' E 011°10'0 0.0
2016-May-27 12:33N 58°56' E 011°10'0 0.0
2016-May-27 11:33N 58°56' E 011°10'0 0.0
2016-May-27 10:33N 58°56' E 011°10'0 0.0
2016-May-27 09:33N 58°56' E 011°10'0 0.1
2016-May-27 08:33N 58°56' E 011°10'0 0.0
2016-May-27 07:33N 58°56' E 011°10'0 0.1
2016-May-27 06:33N 58°56' E 011°10'0 0.0
2016-May-27 05:33N 58°56' E 011°10'0 0.0
2016-May-27 04:33N 58°56' E 011°10'0 0.0
2016-May-27 03:33N 58°56' E 011°10'0 0.0
2016-May-27 02:33N 58°56' E 011°10'0 0.0
2016-May-27 01:33N 58°56' E 011°10'0 0.0
2016-May-27 00:33N 58°56' E 011°10'0 0.0
2016-May-26 23:33N 58°56' E 011°10'0 0.0
2016-May-26 22:33N 58°56' E 011°10'0 0.0
2016-May-26 21:33N 58°56' E 011°10'0 0.4
2016-May-26 20:33N 58°56' E 011°10'0 0.4
2016-May-26 19:33N 58°56' E 011°10'5 4.9
2016-May-26 18:33N 58°55' E 011°01'8 7.5
2016-May-26 17:33N 58°52' E 010°48'8 8.0
2016-May-26 16:32N 58°49' E 010°33'6 6.1
2016-May-26 15:33N 58°46' E 010°23'8 5.9
2016-May-26 14:11N 58°43' E 010°09'0 0.5
2016-May-26 13:33N 58°43' E 010°09'1 1.2
2016-May-26 12:33N 58°41' E 010°10'1 1.3
2016-May-26 11:33N 58°40' E 010°10'1 1.2
2016-May-26 10:33N 58°39' E 010°12'1 1.3
2016-May-26 09:33N 58°40' E 010°14'1 1.2
2016-May-26 08:32N 58°40' E 010°16'3 0.6
2016-May-26 03:17N 58°37' E 010°16'1 1.3
2016-May-26 02:32N 58°36' E 010°17'1 1.3
2016-May-26 01:33N 58°35' E 010°19'1 1.3
2016-May-26 00:33N 58°34' E 010°21'1 1.3
2016-May-25 23:33N 58°33' E 010°22'1 1.3
2016-May-25 22:33N 58°32' E 010°24'1 1.3
2016-May-25 21:33N 58°31' E 010°24'1 1.4
2016-May-25 20:33N 58°30' E 010°25'1 1.4
2016-May-25 19:33N 58°29' E 010°27'3 2.9
2016-May-25 18:33N 58°30' E 010°32'9 8.6
2016-May-25 17:33N 58°36' E 010°44'8 8.2
2016-May-25 16:34N 58°42' E 010°55'8 8.3
2016-May-25 15:33N 58°48' E 011°04'8 7.7
2016-May-25 14:33N 58°56' E 011°08'1 1.3
2016-May-25 13:33N 58°56' E 011°10'0 0.0
2016-May-25 12:33N 58°56' E 011°10'0 0.0
2016-May-25 11:33N 58°56' E 011°10'0 0.0
2016-May-25 10:33N 58°56' E 011°10'0 0.0
2016-May-25 09:33N 58°56' E 011°10'0 0.0
2016-May-25 08:33N 58°56' E 011°10'0 0.0
2016-May-25 07:33N 58°56' E 011°10'0 0.0
2016-May-25 06:33N 58°56' E 011°10'0 0.0
2016-May-25 05:33N 58°56' E 011°10'0 0.0
2016-May-25 04:33N 58°56' E 011°10'0 0.0
2016-May-25 03:33N 58°56' E 011°10'0 0.0
2016-May-25 02:33N 58°56' E 011°10'0 0.0
2016-May-25 01:33N 58°56' E 011°10'0 0.0
2016-May-25 00:33N 58°56' E 011°10'0 0.0
2016-May-24 23:33N 58°56' E 011°10'0 0.0
2016-May-24 22:33N 58°56' E 011°10'0 0.0
2016-May-24 21:33N 58°56' E 011°10'0 0.0
2016-May-24 20:33N 58°56' E 011°10'0 0.0
2016-May-24 19:33N 58°56' E 011°10'0 0.0
2016-May-24 18:33N 58°56' E 011°10'0 0.0
2016-May-24 17:33N 58°56' E 011°10'0 0.0
2016-May-24 16:33N 58°56' E 011°10'0 0.0
2016-May-24 15:33N 58°56' E 011°10'0 0.0
2016-May-24 14:34N 58°56' E 011°10'0 0.0
2016-May-24 13:33N 58°56' E 011°10'0 0.0
2016-May-24 12:33N 58°56' E 011°10'0 0.0
2016-May-24 11:34N 58°56' E 011°10'0 0.0
2016-May-24 10:33N 58°56' E 011°10'3 3.3
2016-May-24 09:33N 58°56' E 011°04'6 5.6
2016-May-24 08:33N 58°54' E 010°54'6 5.7
2016-May-24 07:33N 58°51' E 010°45'6 5.7
2016-May-24 06:33N 58°48' E 010°36'6 5.7
2016-May-24 05:33N 58°45' E 010°26'6 5.7
2016-May-24 04:32N 58°42' E 010°16'2 1.7
2016-May-24 03:33N 58°42' E 010°13'1 1.1
2016-May-24 02:29N 58°42' E 010°11'1 1.2
2016-May-24 01:33N 58°41' E 010°11'1 1.4
2016-May-24 00:31N 58°39' E 010°11'1 1.1
2016-May-23 23:33N 58°40' E 010°13'1 1.3
2016-May-23 22:33N 58°41' E 010°15'1 1.2
2016-May-23 21:33N 58°40' E 010°16'1 1.4
2016-May-23 20:33N 58°38' E 010°16'1 0.5
2016-May-23 19:27N 58°38' E 010°16'1 1.2
2016-May-23 18:33N 58°37' E 010°16'1 1.3
2016-May-23 17:31N 58°36' E 010°17'1 1.3
2016-May-23 16:33N 58°35' E 010°19'1 1.3
2016-May-23 15:33N 58°35' E 010°22'1 1.2
2016-May-23 14:33N 58°33' E 010°23'1 1.3
2016-May-23 13:33N 58°32' E 010°24'1 1.3
2016-May-23 12:33N 58°31' E 010°25'1 1.3
2016-May-23 11:33N 58°30' E 010°26'1 1.2
2016-May-23 10:33N 58°29' E 010°27'0 0.3
2016-May-23 09:32N 58°29' E 010°26'7 5.9
2016-May-23 08:17N 58°35' E 010°21'0 0.6
2016-May-23 07:33N 58°35' E 010°21'1 1.3
2016-May-23 06:33N 58°35' E 010°24'1 1.3
2016-May-23 05:33N 58°34' E 010°25'1 1.3
2016-May-23 04:33N 58°32' E 010°26'1 1.3
2016-May-23 03:33N 58°31' E 010°26'1 1.2
2016-May-23 02:33N 58°30' E 010°27'1 1.3
2016-May-23 01:33N 58°29' E 010°29'1 1.3
2016-May-23 00:33N 58°28' E 010°31'1 1.3
2016-May-22 23:33N 58°27' E 010°31'1 1.3
2016-May-22 22:33N 58°26' E 010°30'2 1.6
2016-May-22 21:33N 58°24' E 010°30'7 7.1
2016-May-22 20:33N 58°30' E 010°38'7 6.9
2016-May-22 19:33N 58°35' E 010°46'7 6.5
2016-May-22 18:33N 58°40' E 010°54'7 6.6
2016-May-22 17:33N 58°46' E 011°01'7 6.8
2016-May-22 16:33N 58°52' E 011°05'5 4.7
2016-May-22 15:33N 58°56' E 011°10'0 0.0
2016-May-22 14:33N 58°56' E 011°10'0 0.0
2016-May-22 13:33N 58°56' E 011°10'0 0.0
2016-May-22 12:33N 58°56' E 011°10'0 0.0
2016-May-22 11:33N 58°56' E 011°10'0 0.0
2016-May-22 10:33N 58°56' E 011°10'0 0.0
2016-May-22 09:33N 58°56' E 011°10'0 0.0
2016-May-22 08:33N 58°56' E 011°10'0 0.0
2016-May-22 07:33N 58°56' E 011°10'0 0.0
2016-May-22 06:33N 58°56' E 011°10'0 0.0
2016-May-22 05:33N 58°56' E 011°10'0 0.0
2016-May-22 04:33N 58°56' E 011°10'0 0.0
2016-May-22 03:33N 58°56' E 011°10'0 0.0
2016-May-22 02:33N 58°56' E 011°10'0 0.0
2016-May-22 01:33N 58°56' E 011°10'0 0.0
2016-May-22 00:33N 58°56' E 011°10'0 0.0
2016-May-21 23:33N 58°56' E 011°10'0 0.0
2016-May-21 22:33N 58°56' E 011°10'0 0.0
2016-May-21 21:33N 58°56' E 011°10'0 0.0
2016-May-21 20:33N 58°56' E 011°10'0 0.0
2016-May-21 19:33N 58°56' E 011°10'0 0.0
2016-May-21 18:33N 58°56' E 011°10'0 0.0
2016-May-21 17:33N 58°56' E 011°10'0 0.0
2016-May-21 16:33N 58°56' E 011°10'0 0.0
2016-May-21 15:33N 58°56' E 011°10'0 0.0
2016-May-21 14:33N 58°56' E 011°10'0 0.0
2016-May-21 13:33N 58°56' E 011°10'0 0.0
2016-May-21 12:33N 58°56' E 011°10'0 0.0
2016-May-21 11:33N 58°56' E 011°10'0 0.0
2016-May-21 10:33N 58°56' E 011°10'0 0.0
2016-May-21 09:33N 58°56' E 011°10'0 0.0
2016-May-21 08:33N 58°56' E 011°10'0 0.0
2016-May-21 07:33N 58°56' E 011°10'0 0.0
2016-May-21 06:33N 58°56' E 011°10'0 0.0
2016-May-21 05:33N 58°56' E 011°10'0 0.0
2016-May-21 04:33N 58°56' E 011°10'0 0.0
2016-May-21 03:33N 58°56' E 011°10'0 0.0
2016-May-21 02:33N 58°56' E 011°10'0 0.0
2016-May-21 01:33N 58°56' E 011°10'0 0.0
2016-May-21 00:33N 58°56' E 011°10'0 0.0
2016-May-20 23:33N 58°56' E 011°10'0 0.0
2016-May-20 22:33N 58°56' E 011°10'0 0.0
2016-May-20 21:33N 58°56' E 011°10'0 0.0
2016-May-20 20:33N 58°56' E 011°10'0 0.0
2016-May-20 19:33N 58°56' E 011°10'0 0.0
2016-May-20 18:33N 58°56' E 011°10'0 0.0
2016-May-20 17:33N 58°56' E 011°10'0 0.0
2016-May-20 16:33N 58°56' E 011°10'0 0.0
2016-May-20 15:33N 58°56' E 011°10'0 0.0
2016-May-20 14:33N 58°56' E 011°10'0 0.0
2016-May-20 13:33N 58°56' E 011°10'0 0.0
2016-May-20 12:33N 58°56' E 011°10'0 0.0
2016-May-20 11:33N 58°56' E 011°10'0 0.0
2016-May-20 10:33N 58°56' E 011°10'0 0.0
2016-May-20 09:33N 58°56' E 011°10'0 0.0
2016-May-20 08:33N 58°56' E 011°10'1 1.4
2016-May-20 07:33N 58°56' E 011°08'7 7.1
2016-May-20 06:33N 59°01' E 010°58'5 4.6
2016-May-20 05:33N 59°05' E 010°52'1 1.0
2016-May-20 04:33N 59°04' E 010°53'8 7.6
2016-May-20 03:33N 58°58' E 011°02'4 4.4
2016-May-20 02:33N 58°56' E 011°10'0 0.0
2016-May-20 01:33N 58°56' E 011°10'0 0.0
2016-May-20 00:33N 58°56' E 011°10'0 0.0
2016-May-19 23:33N 58°56' E 011°10'0 0.0
2016-May-19 22:33N 58°56' E 011°10'0 0.0
2016-May-19 21:33N 58°56' E 011°10'0 0.0
2016-May-19 20:33N 58°56' E 011°10'0 0.0
2016-May-19 19:33N 58°56' E 011°10'0 0.0
2016-May-19 18:33N 58°56' E 011°10'0 0.0
2016-May-19 17:33N 58°56' E 011°10'0 0.0
2016-May-19 16:33N 58°56' E 011°10'0 0.0
2016-May-19 15:33N 58°56' E 011°10'0 0.0
2016-May-19 14:33N 58°56' E 011°10'0 0.0
2016-May-19 13:33N 58°56' E 011°10'0 0.0
2016-May-19 12:33N 58°56' E 011°10'0 0.0
2016-May-19 11:33N 58°56' E 011°10'0 0.0
2016-May-19 10:33N 58°56' E 011°10'0 0.0
2016-May-19 09:33N 58°56' E 011°10'0 0.0
2016-May-19 08:33N 58°56' E 011°10'0 0.0
2016-May-19 07:33N 58°56' E 011°10'0 0.0
2016-May-19 06:33N 58°56' E 011°10'0 0.0
2016-May-19 05:33N 58°56' E 011°10'0 0.0
2016-May-19 04:33N 58°56' E 011°10'0 0.0
2016-May-19 03:33N 58°56' E 011°10'0 0.0
2016-May-19 02:33N 58°56' E 011°10'0 0.0
2016-May-19 01:33N 58°56' E 011°10'0 0.0
2016-May-19 00:33N 58°56' E 011°10'0 0.0
2016-May-18 23:33N 58°56' E 011°10'0 0.0
2016-May-18 22:33N 58°56' E 011°10'0 0.0
2016-May-18 21:33N 58°56' E 011°10'0 0.0
2016-May-18 20:33N 58°56' E 011°10'2 2.1
2016-May-18 19:33N 58°55' E 011°07'6 5.8
2016-May-18 18:33N 58°54' E 010°56'7 6.7
2016-May-18 17:33N 58°50' E 010°45'7 6.8
2016-May-18 16:33N 58°47' E 010°33'7 6.8
2016-May-18 15:33N 58°43' E 010°22'4 3.1
2016-May-18 14:20N 58°41' E 010°16'3 1.2
2016-May-18 11:31N 58°38' E 010°13'1 1.2
2016-May-18 10:33N 58°38' E 010°16'1 1.1
2016-May-18 09:33N 58°39' E 010°17'  
Track history (hours):
 
Tides and Currents Weather Stations Pressure Air Temp Water Temp Dewpoint Dewpoint Depression Visibility Wind Speed Wind Dir Waves Ship Positions

Sd416 Nippon

Last reported at 2016-May-28 09:33 UTC. Time now 2016-May-28 09:57 UTC.
Position N 58°56' E 011°10'.

Length 17 m; draft 2.5 m.

Type: Fishing. MMSI: 266163000.

Date/timePositionNaut miles runAvg speedWind from/ knotsBaromVisibWave heightAir tempDewpointWater temp
2016-May-28 09:33N 58°56' E 011°10'0 0.0
2016-May-28 08:33N 58°56' E 011°10'0 0.0
2016-May-28 07:33N 58°56' E 011°10'0 0.0
2016-May-28 06:33N 58°56' E 011°10'0 0.0
2016-May-28 05:33N 58°56' E 011°10'0 0.0
2016-May-28 04:33N 58°56' E 011°10'0 0.0
2016-May-28 03:33N 58°56' E 011°10'0 0.0
2016-May-28 02:33N 58°56' E 011°10'0 0.0
2016-May-28 01:33N 58°56' E 011°10'0 0.0
2016-May-28 00:33N 58°56' E 011°10'0 0.0
2016-May-27 23:33N 58°56' E 011°10'0 0.0
2016-May-27 22:33N 58°56' E 011°10'0 0.0
2016-May-27 21:33N 58°56' E 011°10'0 0.0
2016-May-27 20:33N 58°56' E 011°10'0 0.0
2016-May-27 19:33N 58°56' E 011°10'0 0.0
2016-May-27 18:33N 58°56' E 011°10'0 0.0
2016-May-27 17:33N 58°56' E 011°10'0 0.0
2016-May-27 16:33N 58°56' E 011°10'0 0.0
2016-May-27 15:33N 58°56' E 011°10'0 0.0
2016-May-27 14:33N 58°56' E 011°10'0 0.0
2016-May-27 13:33N 58°56' E 011°10'0 0.0
2016-May-27 12:33N 58°56' E 011°10'0 0.0
2016-May-27 11:33N 58°56' E 011°10'0 0.0
2016-May-27 10:33N 58°56' E 011°10'0 0.0
2016-May-27 09:33N 58°56' E 011°10'0 0.1
2016-May-27 08:33N 58°56' E 011°10'0 0.0
2016-May-27 07:33N 58°56' E 011°10'0 0.1
2016-May-27 06:33N 58°56' E 011°10'0 0.0
2016-May-27 05:33N 58°56' E 011°10'0 0.0
2016-May-27 04:33N 58°56' E 011°10'0 0.0
2016-May-27 03:33N 58°56' E 011°10'0 0.0
2016-May-27 02:33N 58°56' E 011°10'0 0.0
2016-May-27 01:33N 58°56' E 011°10'0 0.0
2016-May-27 00:33N 58°56' E 011°10'0 0.0
2016-May-26 23:33N 58°56' E 011°10'0 0.0
2016-May-26 22:33N 58°56' E 011°10'0 0.0
2016-May-26 21:33N 58°56' E 011°10'0 0.4
2016-May-26 20:33N 58°56' E 011°10'0 0.4
2016-May-26 19:33N 58°56' E 011°10'5 4.9
2016-May-26 18:33N 58°55' E 011°01'8 7.5
2016-May-26 17:33N 58°52' E 010°48'8 8.0
2016-May-26 16:32N 58°49' E 010°33'6 6.1
2016-May-26 15:33N 58°46' E 010°23'8 5.9
2016-May-26 14:11N 58°43' E 010°09'0 0.5
2016-May-26 13:33N 58°43' E 010°09'1 1.2
2016-May-26 12:33N 58°41' E 010°10'1 1.3
2016-May-26 11:33N 58°40' E 010°10'1 1.2
2016-May-26 10:33N 58°39' E 010°12'1 1.3
2016-May-26 09:33N 58°40' E 010°14'1 1.2
2016-May-26 08:32N 58°40' E 010°16'3 0.6
2016-May-26 03:17N 58°37' E 010°16'1 1.3
2016-May-26 02:32N 58°36' E 010°17'1 1.3
2016-May-26 01:33N 58°35' E 010°19'1 1.3
2016-May-26 00:33N 58°34' E 010°21'1 1.3
2016-May-25 23:33N 58°33' E 010°22'1 1.3
2016-May-25 22:33N 58°32' E 010°24'1 1.3
2016-May-25 21:33N 58°31' E 010°24'1 1.4
2016-May-25 20:33N 58°30' E 010°25'1 1.4
2016-May-25 19:33N 58°29' E 010°27'3 2.9
2016-May-25 18:33N 58°30' E 010°32'9 8.6
2016-May-25 17:33N 58°36' E 010°44'8 8.2
2016-May-25 16:34N 58°42' E 010°55'8 8.3
2016-May-25 15:33N 58°48' E 011°04'8 7.7
2016-May-25 14:33N 58°56' E 011°08'1 1.3
2016-May-25 13:33N 58°56' E 011°10'0 0.0
2016-May-25 12:33N 58°56' E 011°10'0 0.0
2016-May-25 11:33N 58°56' E 011°10'0 0.0
2016-May-25 10:33N 58°56' E 011°10'0 0.0
2016-May-25 09:33N 58°56' E 011°10'0 0.0
2016-May-25 08:33N 58°56' E 011°10'0 0.0
2016-May-25 07:33N 58°56' E 011°10'0 0.0
2016-May-25 06:33N 58°56' E 011°10'0 0.0
2016-May-25 05:33N 58°56' E 011°10'0 0.0
2016-May-25 04:33N 58°56' E 011°10'0 0.0
2016-May-25 03:33N 58°56' E 011°10'0 0.0
2016-May-25 02:33N 58°56' E 011°10'0 0.0
2016-May-25 01:33N 58°56' E 011°10'0 0.0
2016-May-25 00:33N 58°56' E 011°10'0 0.0
2016-May-24 23:33N 58°56' E 011°10'0 0.0
2016-May-24 22:33N 58°56' E 011°10'0 0.0
2016-May-24 21:33N 58°56' E 011°10'0 0.0
2016-May-24 20:33N 58°56' E 011°10'0 0.0
2016-May-24 19:33N 58°56' E 011°10'0 0.0
2016-May-24 18:33N 58°56' E 011°10'0 0.0
2016-May-24 17:33N 58°56' E 011°10'0 0.0
2016-May-24 16:33N 58°56' E 011°10'0 0.0
2016-May-24 15:33N 58°56' E 011°10'0 0.0
2016-May-24 14:34N 58°56' E 011°10'0 0.0
2016-May-24 13:33N 58°56' E 011°10'0 0.0
2016-May-24 12:33N 58°56' E 011°10'0 0.0
2016-May-24 11:34N 58°56' E 011°10'0 0.0
2016-May-24 10:33N 58°56' E 011°10'3 3.3
2016-May-24 09:33N 58°56' E 011°04'6 5.6
2016-May-24 08:33N 58°54' E 010°54'6 5.7
2016-May-24 07:33N 58°51' E 010°45'6 5.7
2016-May-24 06:33N 58°48' E 010°36'6 5.7
2016-May-24 05:33N 58°45' E 010°26'6 5.7
2016-May-24 04:32N 58°42' E 010°16'2 1.7
2016-May-24 03:33N 58°42' E 010°13'1 1.1
2016-May-24 02:29N 58°42' E 010°11'1 1.2
2016-May-24 01:33N 58°41' E 010°11'1 1.4
2016-May-24 00:31N 58°39' E 010°11'1 1.1
2016-May-23 23:33N 58°40' E 010°13'1 1.3
2016-May-23 22:33N 58°41' E 010°15'1 1.2
2016-May-23 21:33N 58°40' E 010°16'1 1.4
2016-May-23 20:33N 58°38' E 010°16'1 0.5
2016-May-23 19:27N 58°38' E 010°16'1 1.2
2016-May-23 18:33N 58°37' E 010°16'1 1.3
2016-May-23 17:31N 58°36' E 010°17'1 1.3
2016-May-23 16:33N 58°35' E 010°19'1 1.3
2016-May-23 15:33N 58°35' E 010°22'1 1.2
2016-May-23 14:33N 58°33' E 010°23'1 1.3
2016-May-23 13:33N 58°32' E 010°24'1 1.3
2016-May-23 12:33N 58°31' E 010°25'1 1.3
2016-May-23 11:33N 58°30' E 010°26'1 1.2
2016-May-23 10:33N 58°29' E 010°27'0 0.3
2016-May-23 09:32N 58°29' E 010°26'7 5.9
2016-May-23 08:17N 58°35' E 010°21'0 0.6
2016-May-23 07:33N 58°35' E 010°21'1 1.3
2016-May-23 06:33N 58°35' E 010°24'1 1.3
2016-May-23 05:33N 58°34' E 010°25'1 1.3
2016-May-23 04:33N 58°32' E 010°26'1 1.3
2016-May-23 03:33N 58°31' E 010°26'1 1.2
2016-May-23 02:33N 58°30' E 010°27'1 1.3
2016-May-23 01:33N 58°29' E 010°29'1 1.3
2016-May-23 00:33N 58°28' E 010°31'1 1.3
2016-May-22 23:33N 58°27' E 010°31'1 1.3
2016-May-22 22:33N 58°26' E 010°30'2 1.6
2016-May-22 21:33N 58°24' E 010°30'7 7.1
2016-May-22 20:33N 58°30' E 010°38'7 6.9
2016-May-22 19:33N 58°35' E 010°46'7 6.5
2016-May-22 18:33N 58°40' E 010°54'7 6.6
2016-May-22 17:33N 58°46' E 011°01'7 6.8
2016-May-22 16:33N 58°52' E 011°05'5 4.7
2016-May-22 15:33N 58°56' E 011°10'0 0.0
2016-May-22 14:33N 58°56' E 011°10'0 0.0
2016-May-22 13:33N 58°56' E 011°10'0 0.0
2016-May-22 12:33N 58°56' E 011°10'0 0.0
2016-May-22 11:33N 58°56' E 011°10'0 0.0
2016-May-22 10:33N 58°56' E 011°10'0 0.0
2016-May-22 09:33N 58°56' E 011°10'0 0.0
2016-May-22 08:33N 58°56' E 011°10'0 0.0
2016-May-22 07:33N 58°56' E 011°10'0 0.0
2016-May-22 06:33N 58°56' E 011°10'0 0.0
2016-May-22 05:33N 58°56' E 011°10'0 0.0
2016-May-22 04:33N 58°56' E 011°10'0 0.0
2016-May-22 03:33N 58°56' E 011°10'0 0.0
2016-May-22 02:33N 58°56' E 011°10'0 0.0
2016-May-22 01:33N 58°56' E 011°10'0 0.0
2016-May-22 00:33N 58°56' E 011°10'0 0.0
2016-May-21 23:33N 58°56' E 011°10'0 0.0
2016-May-21 22:33N 58°56' E 011°10'0 0.0
2016-May-21 21:33N 58°56' E 011°10'0 0.0
2016-May-21 20:33N 58°56' E 011°10'0 0.0
2016-May-21 19:33N 58°56' E 011°10'0 0.0
2016-May-21 18:33N 58°56' E 011°10'0 0.0
2016-May-21 17:33N 58°56' E 011°10'0 0.0
2016-May-21 16:33N 58°56' E 011°10'0 0.0
2016-May-21 15:33N 58°56' E 011°10'0 0.0
2016-May-21 14:33N 58°56' E 011°10'0 0.0
2016-May-21 13:33N 58°56' E 011°10'0 0.0
2016-May-21 12:33N 58°56' E 011°10'0 0.0
2016-May-21 11:33N 58°56' E 011°10'0 0.0
2016-May-21 10:33N 58°56' E 011°10'0 0.0
2016-May-21 09:33N 58°56' E 011°10'0 0.0
2016-May-21 08:33N 58°56' E 011°10'0 0.0
2016-May-21 07:33N 58°56' E 011°10'0 0.0
2016-May-21 06:33N 58°56' E 011°10'0 0.0
2016-May-21 05:33N 58°56' E 011°10'0 0.0
2016-May-21 04:33N 58°56' E 011°10'0 0.0
2016-May-21 03:33N 58°56' E 011°10'0 0.0
2016-May-21 02:33N 58°56' E 011°10'0 0.0
2016-May-21 01:33N 58°56' E 011°10'0 0.0
2016-May-21 00:33N 58°56' E 011°10'0 0.0
2016-May-20 23:33N 58°56' E 011°10'0 0.0
2016-May-20 22:33N 58°56' E 011°10'0 0.0
2016-May-20 21:33N 58°56' E 011°10'0 0.0
2016-May-20 20:33N 58°56' E 011°10'0 0.0
2016-May-20 19:33N 58°56' E 011°10'0 0.0
2016-May-20 18:33N 58°56' E 011°10'0 0.0
2016-May-20 17:33N 58°56' E 011°10'0 0.0
2016-May-20 16:33N 58°56' E 011°10'0 0.0
2016-May-20 15:33N 58°56' E 011°10'0 0.0
2016-May-20 14:33N 58°56' E 011°10'0 0.0
2016-May-20 13:33N 58°56' E 011°10'0 0.0
2016-May-20 12:33N 58°56' E 011°10'0 0.0
2016-May-20 11:33N 58°56' E 011°10'0 0.0
2016-May-20 10:33N 58°56' E 011°10'0 0.0
2016-May-20 09:33N 58°56' E 011°10'0 0.0
2016-May-20 08:33N 58°56' E 011°10'1 1.4
2016-May-20 07:33N 58°56' E 011°08'7 7.1
2016-May-20 06:33N 59°01' E 010°58'5 4.6
2016-May-20 05:33N 59°05' E 010°52'1 1.0
2016-May-20 04:33N 59°04' E 010°53'8 7.6
2016-May-20 03:33N 58°58' E 011°02'4 4.4
2016-May-20 02:33N 58°56' E 011°10'0 0.0
2016-May-20 01:33N 58°56' E 011°10'0 0.0
2016-May-20 00:33N 58°56' E 011°10'0 0.0
2016-May-19 23:33N 58°56' E 011°10'0 0.0
2016-May-19 22:33N 58°56' E 011°10'0 0.0
2016-May-19 21:33N 58°56' E 011°10'0 0.0
2016-May-19 20:33N 58°56' E 011°10'0 0.0
2016-May-19 19:33N 58°56' E 011°10'0 0.0
2016-May-19 18:33N 58°56' E 011°10'0 0.0
2016-May-19 17:33N 58°56' E 011°10'0 0.0
2016-May-19 16:33N 58°56' E 011°10'0 0.0
2016-May-19 15:33N 58°56' E 011°10'0 0.0
2016-May-19 14:33N 58°56' E 011°10'0 0.0
2016-May-19 13:33N 58°56' E 011°10'0 0.0
2016-May-19 12:33N 58°56' E 011°10'0 0.0
2016-May-19 11:33N 58°56' E 011°10'0 0.0
2016-May-19 10:33N 58°56' E 011°10'0 0.0
2016-May-19 09:33N 58°56' E 011°10'0 0.0
2016-May-19 08:33N 58°56' E 011°10'0 0.0
2016-May-19 07:33N 58°56' E 011°10'0 0.0
2016-May-19 06:33N 58°56' E 011°10'0 0.0
2016-May-19 05:33N 58°56' E 011°10'0 0.0
2016-May-19 04:33N 58°56' E 011°10'0 0.0
2016-May-19 03:33N 58°56' E 011°10'0 0.0
2016-May-19 02:33N 58°56' E 011°10'0 0.0
2016-May-19 01:33N 58°56' E 011°10'0 0.0
2016-May-19 00:33N 58°56' E 011°10'0 0.0
2016-May-18 23:33N 58°56' E 011°10'0 0.0
2016-May-18 22:33N 58°56' E 011°10'0 0.0
2016-May-18 21:33N 58°56' E 011°10'0 0.0
2016-May-18 20:33N 58°56' E 011°10'2 2.1
2016-May-18 19:33N 58°55' E 011°07'6 5.8
2016-May-18 18:33N 58°54' E 010°56'7 6.7
2016-May-18 17:33N 58°50' E 010°45'7 6.8
2016-May-18 16:33N 58°47' E 010°33'7 6.8
2016-May-18 15:33N 58°43' E 010°22'4 3.1
2016-May-18 14:20N 58°41' E 010°16'3 1.2
2016-May-18 11:31N 58°38' E 010°13'1 1.2
2016-May-18 10:33N 58°38' E 010°16'1 1.1
2016-May-18 09:33N 58°39' E 010°17'  

Dump ship's entire track history